sensor_id;sensor_type;location;lat;lon;timestamp;P1;durP1;ratioP1;P2;durP2;ratioP2
75419;SDS011;63998;52.488;13.428;2023-02-28T00:00:18;5.57;;;2.40;;
75419;SDS011;63998;52.488;13.428;2023-02-28T00:02:44;6.18;;;3.17;;
75419;SDS011;63998;52.488;13.428;2023-02-28T00:05:11;6.78;;;2.88;;
75419;SDS011;63998;52.488;13.428;2023-02-28T00:07:37;7.35;;;3.08;;
75419;SDS011;63998;52.488;13.428;2023-02-28T00:10:04;5.30;;;2.80;;
75419;SDS011;63998;52.488;13.428;2023-02-28T00:12:32;5.22;;;2.72;;
75419;SDS011;63998;52.488;13.428;2023-02-28T00:14:58;5.25;;;2.72;;
75419;SDS011;63998;52.488;13.428;2023-02-28T00:17:23;4.97;;;2.90;;
75419;SDS011;63998;52.488;13.428;2023-02-28T00:19:53;7.47;;;3.80;;
75419;SDS011;63998;52.488;13.428;2023-02-28T00:22:19;5.57;;;3.00;;
75419;SDS011;63998;52.488;13.428;2023-02-28T00:24:48;3.97;;;2.97;;
75419;SDS011;63998;52.488;13.428;2023-02-28T00:27:16;6.40;;;2.95;;
75419;SDS011;63998;52.488;13.428;2023-02-28T00:29:41;5.50;;;2.63;;
75419;SDS011;63998;52.488;13.428;2023-02-28T00:32:07;6.00;;;3.00;;
75419;SDS011;63998;52.488;13.428;2023-02-28T00:34:32;4.93;;;2.80;;
75419;SDS011;63998;52.488;13.428;2023-02-28T00:37:03;6.13;;;3.20;;
75419;SDS011;63998;52.488;13.428;2023-02-28T00:39:30;6.85;;;2.95;;
75419;SDS011;63998;52.488;13.428;2023-02-28T00:42:00;6.88;;;3.30;;
75419;SDS011;63998;52.488;13.428;2023-02-28T00:46:52;5.35;;;3.45;;
75419;SDS011;63998;52.488;13.428;2023-02-28T00:49:19;7.25;;;3.20;;
75419;SDS011;63998;52.488;13.428;2023-02-28T00:51:47;5.88;;;3.15;;
75419;SDS011;63998;52.488;13.428;2023-02-28T00:54:14;7.90;;;3.55;;
75419;SDS011;63998;52.488;13.428;2023-02-28T00:56:40;6.82;;;3.20;;
75419;SDS011;63998;52.488;13.428;2023-02-28T00:59:10;6.68;;;3.38;;
75419;SDS011;63998;52.488;13.428;2023-02-28T01:01:36;6.88;;;3.50;;
75419;SDS011;63998;52.488;13.428;2023-02-28T01:04:01;6.78;;;3.45;;
75419;SDS011;63998;52.488;13.428;2023-02-28T01:06:26;5.80;;;3.10;;
75419;SDS011;63998;52.488;13.428;2023-02-28T01:08:52;5.33;;;2.87;;
75419;SDS011;63998;52.488;13.428;2023-02-28T01:11:17;4.87;;;3.00;;
75419;SDS011;63998;52.488;13.428;2023-02-28T01:13:43;5.25;;;3.00;;
75419;SDS011;63998;52.488;13.428;2023-02-28T01:16:09;7.47;;;3.00;;
75419;SDS011;63998;52.488;13.428;2023-02-28T01:18:40;10.10;;;3.50;;
75419;SDS011;63998;52.488;13.428;2023-02-28T01:21:09;6.80;;;3.03;;
75419;SDS011;63998;52.488;13.428;2023-02-28T01:23:37;5.60;;;3.22;;
75419;SDS011;63998;52.488;13.428;2023-02-28T01:26:06;6.53;;;3.53;;
75419;SDS011;63998;52.488;13.428;2023-02-28T01:28:33;7.32;;;3.55;;
75419;SDS011;63998;52.488;13.428;2023-02-28T01:30:59;7.75;;;3.97;;
75419;SDS011;63998;52.488;13.428;2023-02-28T01:33:27;6.93;;;3.97;;
75419;SDS011;63998;52.488;13.428;2023-02-28T01:36:00;7.82;;;3.53;;
75419;SDS011;63998;52.488;13.428;2023-02-28T01:38:29;8.98;;;4.65;;
75419;SDS011;63998;52.488;13.428;2023-02-28T01:40:55;7.75;;;4.50;;
75419;SDS011;63998;52.488;13.428;2023-02-28T01:43:31;12.48;;;5.63;;
75419;SDS011;63998;52.488;13.428;2023-02-28T01:46:09;9.93;;;5.45;;
75419;SDS011;63998;52.488;13.428;2023-02-28T01:48:38;6.78;;;4.50;;
75419;SDS011;63998;52.488;13.428;2023-02-28T01:51:11;8.45;;;4.63;;
75419;SDS011;63998;52.488;13.428;2023-02-28T01:53:44;8.15;;;4.13;;
75419;SDS011;63998;52.488;13.428;2023-02-28T01:56:14;9.57;;;4.30;;
75419;SDS011;63998;52.488;13.428;2023-02-28T01:58:46;8.43;;;4.47;;
75419;SDS011;63998;52.488;13.428;2023-02-28T02:01:15;7.45;;;3.95;;
75419;SDS011;63998;52.488;13.428;2023-02-28T02:03:46;5.93;;;3.45;;
75419;SDS011;63998;52.488;13.428;2023-02-28T02:06:27;7.60;;;3.65;;
75419;SDS011;63998;52.488;13.428;2023-02-28T02:08:59;7.57;;;3.80;;
75419;SDS011;63998;52.488;13.428;2023-02-28T02:11:25;7.75;;;3.50;;
75419;SDS011;63998;52.488;13.428;2023-02-28T02:16:43;6.65;;;3.22;;
75419;SDS011;63998;52.488;13.428;2023-02-28T02:22:29;6.65;;;3.35;;
75419;SDS011;63998;52.488;13.428;2023-02-28T02:25:21;9.07;;;3.85;;
75419;SDS011;63998;52.488;13.428;2023-02-28T02:28:17;7.45;;;3.90;;
75419;SDS011;63998;52.488;13.428;2023-02-28T02:36:29;5.22;;;3.22;;
75419;SDS011;63998;52.488;13.428;2023-02-28T02:39:10;8.23;;;4.22;;
75419;SDS011;63998;52.488;13.428;2023-02-28T02:44:13;6.63;;;3.70;;
75419;SDS011;63998;52.488;13.428;2023-02-28T02:46:45;6.63;;;3.65;;
75419;SDS011;63998;52.488;13.428;2023-02-28T02:49:15;5.43;;;3.60;;
75419;SDS011;63998;52.488;13.428;2023-02-28T02:51:46;8.95;;;4.38;;
75419;SDS011;63998;52.488;13.428;2023-02-28T02:54:55;7.80;;;4.18;;
75419;SDS011;63998;52.488;13.428;2023-02-28T02:57:08;6.97;;;3.75;;
75419;SDS011;63998;52.488;13.428;2023-02-28T03:02:08;6.60;;;3.90;;
75419;SDS011;63998;52.488;13.428;2023-02-28T03:04:42;8.07;;;3.67;;
75419;SDS011;63998;52.488;13.428;2023-02-28T03:07:13;7.10;;;3.60;;
75419;SDS011;63998;52.488;13.428;2023-02-28T03:09:40;6.15;;;3.42;;
75419;SDS011;63998;52.488;13.428;2023-02-28T03:12:06;6.72;;;3.88;;
75419;SDS011;63998;52.488;13.428;2023-02-28T03:14:51;7.05;;;3.97;;
75419;SDS011;63998;52.488;13.428;2023-02-28T03:17:34;7.13;;;4.20;;
75419;SDS011;63998;52.488;13.428;2023-02-28T03:23:22;6.90;;;3.58;;
75419;SDS011;63998;52.488;13.428;2023-02-28T03:26:08;9.20;;;4.13;;
75419;SDS011;63998;52.488;13.428;2023-02-28T03:31:39;9.15;;;4.20;;
75419;SDS011;63998;52.488;13.428;2023-02-28T03:34:12;6.65;;;3.70;;
75419;SDS011;63998;52.488;13.428;2023-02-28T03:36:50;8.15;;;4.03;;
75419;SDS011;63998;52.488;13.428;2023-02-28T03:39:23;7.45;;;3.92;;
75419;SDS011;63998;52.488;13.428;2023-02-28T03:42:05;8.68;;;4.50;;
75419;SDS011;63998;52.488;13.428;2023-02-28T03:44:36;8.60;;;4.05;;
75419;SDS011;63998;52.488;13.428;2023-02-28T03:52:39;7.32;;;3.97;;
75419;SDS011;63998;52.488;13.428;2023-02-28T03:55:11;7.85;;;4.03;;
75419;SDS011;63998;52.488;13.428;2023-02-28T03:57:45;8.32;;;4.10;;
75419;SDS011;63998;52.488;13.428;2023-02-28T04:00:34;20.05;;;8.63;;
75419;SDS011;63998;52.488;13.428;2023-02-28T04:03:03;115.88;;;54.83;;
75419;SDS011;63998;52.488;13.428;2023-02-28T04:05:28;102.00;;;47.97;;
75419;SDS011;63998;52.488;13.428;2023-02-28T04:07:54;49.03;;;22.35;;
75419;SDS011;63998;52.488;13.428;2023-02-28T04:10:29;26.48;;;13.10;;
75419;SDS011;63998;52.488;13.428;2023-02-28T04:12:54;20.90;;;10.77;;
75419;SDS011;63998;52.488;13.428;2023-02-28T04:15:22;12.45;;;6.53;;
75419;SDS011;63998;52.488;13.428;2023-02-28T04:17:52;9.27;;;5.25;;
75419;SDS011;63998;52.488;13.428;2023-02-28T04:20:22;7.70;;;4.68;;
75419;SDS011;63998;52.488;13.428;2023-02-28T04:22:47;8.20;;;3.97;;
75419;SDS011;63998;52.488;13.428;2023-02-28T04:25:12;9.00;;;4.10;;
75419;SDS011;63998;52.488;13.428;2023-02-28T04:27:40;8.90;;;4.60;;
75419;SDS011;63998;52.488;13.428;2023-02-28T04:30:06;7.73;;;4.97;;
75419;SDS011;63998;52.488;13.428;2023-02-28T04:32:31;7.93;;;4.38;;
75419;SDS011;63998;52.488;13.428;2023-02-28T04:34:59;9.47;;;5.07;;
75419;SDS011;63998;52.488;13.428;2023-02-28T04:37:24;7.13;;;4.00;;
75419;SDS011;63998;52.488;13.428;2023-02-28T04:42:19;7.20;;;4.10;;
75419;SDS011;63998;52.488;13.428;2023-02-28T04:44:44;8.90;;;5.00;;
75419;SDS011;63998;52.488;13.428;2023-02-28T04:47:12;9.25;;;5.05;;
75419;SDS011;63998;52.488;13.428;2023-02-28T04:49:37;9.40;;;5.10;;
75419;SDS011;63998;52.488;13.428;2023-02-28T04:52:03;7.63;;;4.25;;
75419;SDS011;63998;52.488;13.428;2023-02-28T04:54:28;7.40;;;4.68;;
75419;SDS011;63998;52.488;13.428;2023-02-28T04:56:54;7.68;;;4.50;;
75419;SDS011;63998;52.488;13.428;2023-02-28T04:59:20;11.30;;;4.93;;
75419;SDS011;63998;52.488;13.428;2023-02-28T05:01:48;8.43;;;4.68;;
75419;SDS011;63998;52.488;13.428;2023-02-28T05:04:14;7.55;;;4.85;;
75419;SDS011;63998;52.488;13.428;2023-02-28T05:06:39;9.43;;;4.90;;
75419;SDS011;63998;52.488;13.428;2023-02-28T05:09:05;8.47;;;4.70;;
75419;SDS011;63998;52.488;13.428;2023-02-28T05:11:31;7.97;;;4.77;;
75419;SDS011;63998;52.488;13.428;2023-02-28T05:14:04;7.63;;;4.82;;
75419;SDS011;63998;52.488;13.428;2023-02-28T05:16:34;8.38;;;4.68;;
75419;SDS011;63998;52.488;13.428;2023-02-28T05:19:00;9.07;;;4.80;;
75419;SDS011;63998;52.488;13.428;2023-02-28T05:21:33;7.55;;;4.40;;
75419;SDS011;63998;52.488;13.428;2023-02-28T05:24:14;10.45;;;4.70;;
75419;SDS011;63998;52.488;13.428;2023-02-28T05:26:48;7.60;;;4.90;;
75419;SDS011;63998;52.488;13.428;2023-02-28T05:29:15;8.90;;;5.20;;
75419;SDS011;63998;52.488;13.428;2023-02-28T05:31:40;12.07;;;6.03;;
75419;SDS011;63998;52.488;13.428;2023-02-28T05:34:05;8.93;;;4.83;;
75419;SDS011;63998;52.488;13.428;2023-02-28T05:36:37;7.40;;;4.75;;
75419;SDS011;63998;52.488;13.428;2023-02-28T05:39:05;13.20;;;5.80;;
75419;SDS011;63998;52.488;13.428;2023-02-28T05:41:37;10.75;;;5.50;;
75419;SDS011;63998;52.488;13.428;2023-02-28T05:44:04;13.50;;;7.43;;
75419;SDS011;63998;52.488;13.428;2023-02-28T05:46:29;11.52;;;5.03;;
75419;SDS011;63998;52.488;13.428;2023-02-28T05:48:55;7.97;;;4.90;;
75419;SDS011;63998;52.488;13.428;2023-02-28T05:51:21;11.48;;;5.00;;
75419;SDS011;63998;52.488;13.428;2023-02-28T05:53:48;11.98;;;6.20;;
75419;SDS011;63998;52.488;13.428;2023-02-28T05:56:14;12.02;;;6.05;;
75419;SDS011;63998;52.488;13.428;2023-02-28T05:58:42;12.02;;;5.03;;
75419;SDS011;63998;52.488;13.428;2023-02-28T06:01:23;9.25;;;5.03;;
75419;SDS011;63998;52.488;13.428;2023-02-28T06:03:55;8.55;;;5.20;;
75419;SDS011;63998;52.488;13.428;2023-02-28T06:06:20;7.60;;;4.80;;
75419;SDS011;63998;52.488;13.428;2023-02-28T06:08:48;9.80;;;4.90;;
75419;SDS011;63998;52.488;13.428;2023-02-28T06:11:15;9.23;;;4.83;;
75419;SDS011;63998;52.488;13.428;2023-02-28T06:13:41;9.15;;;4.93;;
75419;SDS011;63998;52.488;13.428;2023-02-28T06:16:07;9.52;;;5.00;;
75419;SDS011;63998;52.488;13.428;2023-02-28T06:18:35;8.30;;;4.80;;
75419;SDS011;63998;52.488;13.428;2023-02-28T06:21:00;9.90;;;5.75;;
75419;SDS011;63998;52.488;13.428;2023-02-28T06:23:28;9.53;;;5.03;;
75419;SDS011;63998;52.488;13.428;2023-02-28T06:25:58;12.02;;;5.18;;
75419;SDS011;63998;52.488;13.428;2023-02-28T06:28:24;10.50;;;5.20;;
75419;SDS011;63998;52.488;13.428;2023-02-28T06:30:50;11.43;;;6.30;;
75419;SDS011;63998;52.488;13.428;2023-02-28T06:33:16;10.75;;;5.57;;
75419;SDS011;63998;52.488;13.428;2023-02-28T06:35:44;10.97;;;6.30;;
75419;SDS011;63998;52.488;13.428;2023-02-28T06:38:14;20.98;;;8.80;;
75419;SDS011;63998;52.488;13.428;2023-02-28T06:40:39;18.38;;;8.25;;
75419;SDS011;63998;52.488;13.428;2023-02-28T06:43:05;12.77;;;6.53;;
75419;SDS011;63998;52.488;13.428;2023-02-28T06:45:30;12.10;;;5.80;;
75419;SDS011;63998;52.488;13.428;2023-02-28T06:47:56;12.43;;;6.70;;
75419;SDS011;63998;52.488;13.428;2023-02-28T06:50:23;13.03;;;6.63;;
75419;SDS011;63998;52.488;13.428;2023-02-28T06:52:49;14.35;;;7.25;;
75419;SDS011;63998;52.488;13.428;2023-02-28T06:55:18;12.40;;;5.30;;
75419;SDS011;63998;52.488;13.428;2023-02-28T06:57:44;8.82;;;5.40;;
75419;SDS011;63998;52.488;13.428;2023-02-28T07:00:12;13.18;;;7.78;;
75419;SDS011;63998;52.488;13.428;2023-02-28T07:02:38;23.70;;;11.60;;
75419;SDS011;63998;52.488;13.428;2023-02-28T07:05:06;23.02;;;11.32;;
75419;SDS011;63998;52.488;13.428;2023-02-28T07:07:34;18.02;;;9.60;;
75419;SDS011;63998;52.488;13.428;2023-02-28T07:10:01;20.65;;;9.93;;
75419;SDS011;63998;52.488;13.428;2023-02-28T07:12:26;22.38;;;10.63;;
75419;SDS011;63998;52.488;13.428;2023-02-28T07:14:52;21.13;;;10.57;;
75419;SDS011;63998;52.488;13.428;2023-02-28T07:19:48;23.02;;;14.50;;
75419;SDS011;63998;52.488;13.428;2023-02-28T07:22:13;20.20;;;12.60;;
75419;SDS011;63998;52.488;13.428;2023-02-28T07:24:43;11.30;;;8.32;;
75419;SDS011;63998;52.488;13.428;2023-02-28T07:27:08;11.82;;;8.10;;
75419;SDS011;63998;52.488;13.428;2023-02-28T07:29:34;13.90;;;7.53;;
75419;SDS011;63998;52.488;13.428;2023-02-28T07:31:59;11.03;;;6.17;;
75419;SDS011;63998;52.488;13.428;2023-02-28T07:34:24;9.53;;;5.47;;
75419;SDS011;63998;52.488;13.428;2023-02-28T07:36:52;21.55;;;9.50;;
75419;SDS011;63998;52.488;13.428;2023-02-28T07:39:21;14.93;;;8.20;;
75419;SDS011;63998;52.488;13.428;2023-02-28T07:41:47;16.05;;;7.65;;
75419;SDS011;63998;52.488;13.428;2023-02-28T07:44:14;13.27;;;6.90;;
75419;SDS011;63998;52.488;13.428;2023-02-28T07:46:40;11.57;;;6.03;;
75419;SDS011;63998;52.488;13.428;2023-02-28T07:49:05;26.90;;;13.17;;
75419;SDS011;63998;52.488;13.428;2023-02-28T07:51:31;21.55;;;9.38;;
75419;SDS011;63998;52.488;13.428;2023-02-28T07:53:57;24.40;;;11.43;;
75419;SDS011;63998;52.488;13.428;2023-02-28T07:56:22;18.05;;;8.68;;
75419;SDS011;63998;52.488;13.428;2023-02-28T07:58:48;21.83;;;10.13;;
75419;SDS011;63998;52.488;13.428;2023-02-28T08:01:13;14.85;;;8.48;;
75419;SDS011;63998;52.488;13.428;2023-02-28T08:03:39;16.23;;;8.02;;
75419;SDS011;63998;52.488;13.428;2023-02-28T08:06:05;11.05;;;6.00;;
75419;SDS011;63998;52.488;13.428;2023-02-28T08:08:32;14.85;;;6.68;;
75419;SDS011;63998;52.488;13.428;2023-02-28T08:10:58;7.78;;;4.38;;
75419;SDS011;63998;52.488;13.428;2023-02-28T08:13:25;7.35;;;4.60;;
75419;SDS011;63998;52.488;13.428;2023-02-28T08:15:52;7.60;;;4.10;;
75419;SDS011;63998;52.488;13.428;2023-02-28T08:18:18;13.60;;;6.07;;
75419;SDS011;63998;52.488;13.428;2023-02-28T08:20:46;6.45;;;3.97;;
75419;SDS011;63998;52.488;13.428;2023-02-28T08:23:11;19.23;;;6.60;;
75419;SDS011;63998;52.488;13.428;2023-02-28T08:25:39;11.15;;;5.13;;
75419;SDS011;63998;52.488;13.428;2023-02-28T08:28:04;8.77;;;4.38;;
75419;SDS011;63998;52.488;13.428;2023-02-28T08:30:30;10.35;;;5.38;;
75419;SDS011;63998;52.488;13.428;2023-02-28T08:32:55;5.43;;;3.00;;
75419;SDS011;63998;52.488;13.428;2023-02-28T08:35:21;6.57;;;3.10;;
75419;SDS011;63998;52.488;13.428;2023-02-28T08:37:47;10.07;;;3.50;;
75419;SDS011;63998;52.488;13.428;2023-02-28T08:40:14;17.95;;;6.43;;
75419;SDS011;63998;52.488;13.428;2023-02-28T08:42:46;8.75;;;3.72;;
75419;SDS011;63998;52.488;13.428;2023-02-28T08:45:15;9.05;;;3.67;;
75419;SDS011;63998;52.488;13.428;2023-02-28T08:47:40;9.23;;;3.83;;
75419;SDS011;63998;52.488;13.428;2023-02-28T08:50:06;8.00;;;4.50;;
75419;SDS011;63998;52.488;13.428;2023-02-28T08:52:32;6.85;;;3.13;;
75419;SDS011;63998;52.488;13.428;2023-02-28T08:54:58;5.57;;;2.63;;
75419;SDS011;63998;52.488;13.428;2023-02-28T08:57:23;4.50;;;2.80;;
75419;SDS011;63998;52.488;13.428;2023-02-28T08:59:51;7.53;;;2.60;;
75419;SDS011;63998;52.488;13.428;2023-02-28T09:02:19;5.30;;;2.47;;
75419;SDS011;63998;52.488;13.428;2023-02-28T09:04:44;3.70;;;2.20;;
75419;SDS011;63998;52.488;13.428;2023-02-28T09:07:12;2.15;;;1.60;;
75419;SDS011;63998;52.488;13.428;2023-02-28T09:09:38;4.85;;;1.95;;
75419;SDS011;63998;52.488;13.428;2023-02-28T09:12:18;6.22;;;2.65;;
75419;SDS011;63998;52.488;13.428;2023-02-28T09:14:46;5.28;;;2.90;;
75419;SDS011;63998;52.488;13.428;2023-02-28T09:17:12;4.32;;;2.60;;
75419;SDS011;63998;52.488;13.428;2023-02-28T09:19:37;3.43;;;2.07;;
75419;SDS011;63998;52.488;13.428;2023-02-28T09:22:02;3.43;;;2.00;;
75419;SDS011;63998;52.488;13.428;2023-02-28T09:24:27;4.40;;;2.00;;
75419;SDS011;63998;52.488;13.428;2023-02-28T09:26:53;16.25;;;10.10;;
75419;SDS011;63998;52.488;13.428;2023-02-28T09:29:18;5.13;;;2.77;;
75419;SDS011;63998;52.488;13.428;2023-02-28T09:31:46;3.85;;;2.30;;
75419;SDS011;63998;52.488;13.428;2023-02-28T09:34:12;6.63;;;3.58;;
75419;SDS011;63998;52.488;13.428;2023-02-28T09:36:37;14.27;;;8.25;;
75419;SDS011;63998;52.488;13.428;2023-02-28T09:39:05;5.28;;;2.47;;
75419;SDS011;63998;52.488;13.428;2023-02-28T09:41:38;5.00;;;2.30;;
75419;SDS011;63998;52.488;13.428;2023-02-28T09:44:12;4.60;;;2.45;;
75419;SDS011;63998;52.488;13.428;2023-02-28T09:46:47;2.85;;;1.80;;
75419;SDS011;63998;52.488;13.428;2023-02-28T09:54:12;5.95;;;3.55;;
75419;SDS011;63998;52.488;13.428;2023-02-28T09:56:44;5.15;;;3.53;;
75419;SDS011;63998;52.488;13.428;2023-02-28T10:02:03;8.02;;;4.20;;
75419;SDS011;63998;52.488;13.428;2023-02-28T10:04:59;7.10;;;3.40;;
75419;SDS011;63998;52.488;13.428;2023-02-28T10:10:21;4.75;;;2.72;;
75419;SDS011;63998;52.488;13.428;2023-02-28T10:12:52;6.32;;;3.33;;
75419;SDS011;63998;52.488;13.428;2023-02-28T10:15:23;10.43;;;5.53;;
75419;SDS011;63998;52.488;13.428;2023-02-28T10:20:20;17.70;;;10.13;;
75419;SDS011;63998;52.488;13.428;2023-02-28T10:25:42;7.93;;;3.22;;
75419;SDS011;63998;52.488;13.428;2023-02-28T10:28:14;3.08;;;2.00;;
75419;SDS011;63998;52.488;13.428;2023-02-28T10:33:19;8.73;;;6.07;;
75419;SDS011;63998;52.488;13.428;2023-02-28T10:35:56;6.45;;;2.70;;
75419;SDS011;63998;52.488;13.428;2023-02-28T10:38:31;4.95;;;2.28;;
75419;SDS011;63998;52.488;13.428;2023-02-28T10:41:07;6.55;;;1.90;;
75419;SDS011;63998;52.488;13.428;2023-02-28T10:43:37;2.92;;;1.77;;
75419;SDS011;63998;52.488;13.428;2023-02-28T10:51:12;4.07;;;1.65;;
75419;SDS011;63998;52.488;13.428;2023-02-28T10:53:45;5.20;;;2.78;;
75419;SDS011;63998;52.488;13.428;2023-02-28T11:03:59;4.10;;;2.17;;
75419;SDS011;63998;52.488;13.428;2023-02-28T11:06:31;6.80;;;2.83;;
75419;SDS011;63998;52.488;13.428;2023-02-28T11:11:44;31.05;;;12.43;;
75419;SDS011;63998;52.488;13.428;2023-02-28T11:14:17;17.25;;;7.63;;
75419;SDS011;63998;52.488;13.428;2023-02-28T11:16:47;16.45;;;5.35;;
75419;SDS011;63998;52.488;13.428;2023-02-28T11:19:24;6.28;;;3.20;;
75419;SDS011;63998;52.488;13.428;2023-02-28T11:22:02;6.63;;;2.90;;
75419;SDS011;63998;52.488;13.428;2023-02-28T11:27:00;7.15;;;2.72;;
75419;SDS011;63998;52.488;13.428;2023-02-28T11:32:18;6.95;;;2.40;;
75419;SDS011;63998;52.488;13.428;2023-02-28T11:34:46;4.22;;;2.60;;
75419;SDS011;63998;52.488;13.428;2023-02-28T11:37:24;3.85;;;2.60;;
75419;SDS011;63998;52.488;13.428;2023-02-28T11:39:52;5.35;;;3.13;;
75419;SDS011;63998;52.488;13.428;2023-02-28T12:05:11;5.57;;;2.90;;
75419;SDS011;63998;52.488;13.428;2023-02-28T12:10:26;5.78;;;2.55;;
75419;SDS011;63998;52.488;13.428;2023-02-28T12:13:07;6.28;;;2.88;;
75419;SDS011;63998;52.488;13.428;2023-02-28T12:16:00;4.85;;;2.30;;
75419;SDS011;63998;52.488;13.428;2023-02-28T12:26:48;5.95;;;3.47;;
75419;SDS011;63998;52.488;13.428;2023-02-28T12:31:54;4.85;;;2.63;;
75419;SDS011;63998;52.488;13.428;2023-02-28T12:34:22;4.65;;;2.60;;
75419;SDS011;63998;52.488;13.428;2023-02-28T12:36:53;3.47;;;2.38;;
75419;SDS011;63998;52.488;13.428;2023-02-28T12:41:59;5.57;;;2.38;;
75419;SDS011;63998;52.488;13.428;2023-02-28T12:47:17;4.30;;;2.22;;
75419;SDS011;63998;52.488;13.428;2023-02-28T12:49:49;3.78;;;2.17;;
75419;SDS011;63998;52.488;13.428;2023-02-28T12:52:22;10.35;;;4.65;;
75419;SDS011;63998;52.488;13.428;2023-02-28T12:55:11;11.70;;;4.95;;
75419;SDS011;63998;52.488;13.428;2023-02-28T13:09:19;17.10;;;7.10;;
75419;SDS011;63998;52.488;13.428;2023-02-28T13:14:20;7.43;;;3.70;;
75419;SDS011;63998;52.488;13.428;2023-02-28T13:19:40;11.40;;;4.78;;
75419;SDS011;63998;52.488;13.428;2023-02-28T13:22:46;8.27;;;4.20;;
75419;SDS011;63998;52.488;13.428;2023-02-28T13:27:49;4.80;;;2.22;;
75419;SDS011;63998;52.488;13.428;2023-02-28T13:35:44;8.63;;;4.10;;
75419;SDS011;63998;52.488;13.428;2023-02-28T13:38:16;3.80;;;2.20;;
75419;SDS011;63998;52.488;13.428;2023-02-28T13:40:49;4.90;;;3.00;;
75419;SDS011;63998;52.488;13.428;2023-02-28T13:43:16;3.92;;;2.72;;
75419;SDS011;63998;52.488;13.428;2023-02-28T13:46:06;4.38;;;2.90;;
75419;SDS011;63998;52.488;13.428;2023-02-28T13:48:39;5.05;;;2.90;;
75419;SDS011;63998;52.488;13.428;2023-02-28T13:51:41;4.13;;;2.53;;
75419;SDS011;63998;52.488;13.428;2023-02-28T14:05:28;12.73;;;6.07;;
75419;SDS011;63998;52.488;13.428;2023-02-28T14:07:58;5.65;;;3.75;;
75419;SDS011;63998;52.488;13.428;2023-02-28T14:10:30;6.35;;;3.88;;
75419;SDS011;63998;52.488;13.428;2023-02-28T14:18:16;5.47;;;3.03;;
75419;SDS011;63998;52.488;13.428;2023-02-28T14:20:48;4.53;;;3.03;;
75419;SDS011;63998;52.488;13.428;2023-02-28T14:29:01;6.15;;;3.90;;
75419;SDS011;63998;52.488;13.428;2023-02-28T14:31:40;4.78;;;2.90;;
75419;SDS011;63998;52.488;13.428;2023-02-28T14:34:20;14.40;;;7.00;;
75419;SDS011;63998;52.488;13.428;2023-02-28T14:37:01;4.55;;;2.83;;
75419;SDS011;63998;52.488;13.428;2023-02-28T14:39:28;5.40;;;3.10;;
75419;SDS011;63998;52.488;13.428;2023-02-28T14:42:01;5.70;;;3.08;;
75419;SDS011;63998;52.488;13.428;2023-02-28T14:44:29;4.32;;;2.80;;
75419;SDS011;63998;52.488;13.428;2023-02-28T14:46:59;15.45;;;7.90;;
75419;SDS011;63998;52.488;13.428;2023-02-28T14:49:37;12.85;;;8.05;;
75419;SDS011;63998;52.488;13.428;2023-02-28T14:52:17;5.13;;;2.85;;
75419;SDS011;63998;52.488;13.428;2023-02-28T14:54:46;4.35;;;3.03;;
75419;SDS011;63998;52.488;13.428;2023-02-28T14:57:22;4.90;;;3.42;;
75419;SDS011;63998;52.488;13.428;2023-02-28T15:02:40;5.47;;;3.20;;
75419;SDS011;63998;52.488;13.428;2023-02-28T15:13:05;4.70;;;3.20;;
75419;SDS011;63998;52.488;13.428;2023-02-28T15:21:14;4.35;;;3.08;;
75419;SDS011;63998;52.488;13.428;2023-02-28T15:23:51;7.78;;;3.30;;
75419;SDS011;63998;52.488;13.428;2023-02-28T15:26:22;6.60;;;3.47;;
75419;SDS011;63998;52.488;13.428;2023-02-28T15:28:54;6.60;;;3.50;;
75419;SDS011;63998;52.488;13.428;2023-02-28T15:31:28;5.70;;;3.50;;
75419;SDS011;63998;52.488;13.428;2023-02-28T15:33:58;5.47;;;3.13;;
75419;SDS011;63998;52.488;13.428;2023-02-28T15:36:30;6.03;;;3.95;;
75419;SDS011;63998;52.488;13.428;2023-02-28T15:38:58;5.60;;;3.83;;
75419;SDS011;63998;52.488;13.428;2023-02-28T15:41:26;7.30;;;4.57;;
75419;SDS011;63998;52.488;13.428;2023-02-28T15:46:43;9.95;;;5.80;;
75419;SDS011;63998;52.488;13.428;2023-02-28T15:49:21;10.23;;;5.43;;
75419;SDS011;63998;52.488;13.428;2023-02-28T15:51:51;9.38;;;5.97;;
75419;SDS011;63998;52.488;13.428;2023-02-28T15:54:28;10.48;;;6.47;;
75419;SDS011;63998;52.488;13.428;2023-02-28T15:57:06;6.35;;;3.28;;
75419;SDS011;63998;52.488;13.428;2023-02-28T15:59:38;6.50;;;3.65;;
75419;SDS011;63998;52.488;13.428;2023-02-28T16:04:37;4.47;;;3.13;;
75419;SDS011;63998;52.488;13.428;2023-02-28T16:07:31;7.10;;;3.63;;
75419;SDS011;63998;52.488;13.428;2023-02-28T16:09:57;5.05;;;3.53;;
75419;SDS011;63998;52.488;13.428;2023-02-28T16:14:55;6.05;;;3.13;;
75419;SDS011;63998;52.488;13.428;2023-02-28T16:17:26;5.70;;;3.40;;
75419;SDS011;63998;52.488;13.428;2023-02-28T16:19:55;5.60;;;3.35;;
75419;SDS011;63998;52.488;13.428;2023-02-28T16:22:21;9.15;;;5.70;;
75419;SDS011;63998;52.488;13.428;2023-02-28T16:24:46;16.17;;;9.13;;
75419;SDS011;63998;52.488;13.428;2023-02-28T16:27:19;11.13;;;7.55;;
75419;SDS011;63998;52.488;13.428;2023-02-28T16:29:46;9.43;;;5.00;;
75419;SDS011;63998;52.488;13.428;2023-02-28T16:32:14;5.95;;;3.75;;
75419;SDS011;63998;52.488;13.428;2023-02-28T16:34:40;7.18;;;5.05;;
75419;SDS011;63998;52.488;13.428;2023-02-28T16:37:13;4.32;;;3.13;;
75419;SDS011;63998;52.488;13.428;2023-02-28T16:39:41;6.80;;;3.88;;
75419;SDS011;63998;52.488;13.428;2023-02-28T16:42:09;5.80;;;3.38;;
75419;SDS011;63998;52.488;13.428;2023-02-28T16:44:56;8.65;;;5.30;;
75419;SDS011;63998;52.488;13.428;2023-02-28T16:47:22;9.30;;;4.20;;
75419;SDS011;63998;52.488;13.428;2023-02-28T16:49:48;7.40;;;4.47;;
75419;SDS011;63998;52.488;13.428;2023-02-28T16:52:14;7.97;;;4.35;;
75419;SDS011;63998;52.488;13.428;2023-02-28T16:54:44;7.30;;;4.35;;
75419;SDS011;63998;52.488;13.428;2023-02-28T16:57:15;12.93;;;6.93;;
75419;SDS011;63998;52.488;13.428;2023-02-28T16:59:44;11.50;;;6.95;;
75419;SDS011;63998;52.488;13.428;2023-02-28T17:02:10;14.05;;;8.95;;
75419;SDS011;63998;52.488;13.428;2023-02-28T17:04:41;20.20;;;9.60;;
75419;SDS011;63998;52.488;13.428;2023-02-28T17:07:13;22.95;;;13.18;;
75419;SDS011;63998;52.488;13.428;2023-02-28T17:09:41;17.30;;;10.13;;
75419;SDS011;63998;52.488;13.428;2023-02-28T17:12:08;18.52;;;10.95;;
75419;SDS011;63998;52.488;13.428;2023-02-28T17:14:34;19.65;;;10.75;;
75419;SDS011;63998;52.488;13.428;2023-02-28T17:16:59;16.88;;;9.05;;
75419;SDS011;63998;52.488;13.428;2023-02-28T17:19:27;11.63;;;7.10;;
75419;SDS011;63998;52.488;13.428;2023-02-28T17:21:53;12.65;;;8.00;;
75419;SDS011;63998;52.488;13.428;2023-02-28T17:24:18;18.33;;;9.95;;
75419;SDS011;63998;52.488;13.428;2023-02-28T17:26:46;15.18;;;9.40;;
75419;SDS011;63998;52.488;13.428;2023-02-28T17:29:18;14.60;;;9.30;;
75419;SDS011;63998;52.488;13.428;2023-02-28T17:31:45;14.63;;;8.45;;
75419;SDS011;63998;52.488;13.428;2023-02-28T17:34:10;13.35;;;7.90;;
75419;SDS011;63998;52.488;13.428;2023-02-28T17:36:36;10.57;;;6.28;;
75419;SDS011;63998;52.488;13.428;2023-02-28T17:39:05;10.02;;;5.57;;
75419;SDS011;63998;52.488;13.428;2023-02-28T17:41:35;10.63;;;5.32;;
75419;SDS011;63998;52.488;13.428;2023-02-28T17:44:01;8.37;;;4.83;;
75419;SDS011;63998;52.488;13.428;2023-02-28T17:46:26;11.63;;;7.03;;
75419;SDS011;63998;52.488;13.428;2023-02-28T17:48:53;10.75;;;6.57;;
75419;SDS011;63998;52.488;13.428;2023-02-28T17:51:23;11.82;;;5.97;;
75419;SDS011;63998;52.488;13.428;2023-02-28T17:53:49;11.00;;;5.82;;